Ben — 9VJM4 — position and weather

sailwx.info

Track history (hours):
 
Tides and Currents Weather Stations Pressure Air Temp Water Temp Dewpoint Dewpoint Depression Visibility Wind Speed Wind Dir Waves Ship Positions

Ben

Last reported at 2016-Jan-21 15:08 UTC. Time now 2016-Feb-06 23:18 UTC.
Position N 01°15' E 104°04'.
Warning: this ship's position is 16 days out of date.

Length 127 m; draft 5.8 m.

Type: Ship. MMSI: 565611000.

Date/timePositionNaut miles runAvg speedWind from/ knotsBaromVisibWave heightAir tempDewpointWater temp
2016-Jan-21 15:08N 01°15' E 104°04'711.7
2016-Jan-21 14:33N 01°14' E 103°57'1111.0
2016-Jan-21 13:30N 01°09' E 103°47'9 0.3
2016-Jan-20 10:16N 01°14' E 103°39'3 3.9
2016-Jan-20 09:33N 01°11' E 103°40'8 8.3
2016-Jan-20 08:33N 01°11' E 103°48'1212.1
2016-Jan-20 07:33N 01°15' E 103°60'  
2016-Jan-13 16:32N 30°30' E 122°60'6611.0
2016-Jan-13 10:32N 31°07' E 121°56'1515.0
2016-Jan-13 09:33N 31°17' E 121°44'1212.2
2016-Jan-13 08:33N 31°24' E 121°32'9 8.7
2016-Jan-13 07:33N 31°30' E 121°25'10 9.8
2016-Jan-13 06:33N 31°30' E 121°36'7 7.3
2016-Jan-13 05:33N 31°34' E 121°30'1 1.1
2016-Jan-13 04:33N 31°35' E 121°28'0 0.2
2016-Jan-13 03:30N 31°34' E 121°29'0 0.0
2016-Jan-13 02:33N 31°34' E 121°29'0 0.0
2016-Jan-13 01:33N 31°34' E 121°29'0 0.1
2016-Jan-13 00:33N 31°34' E 121°29'0 0.0
2016-Jan-12 23:33N 31°34' E 121°29'0 0.1
2016-Jan-12 22:33N 31°34' E 121°29'0 0.0
2016-Jan-12 21:33N 31°34' E 121°29'0 0.0
2016-Jan-12 20:33N 31°34' E 121°29'0 0.2
2016-Jan-12 19:30N 31°34' E 121°28'0 0.0
2016-Jan-12 18:27N 31°34' E 121°28'0 0.0
2016-Jan-12 17:33N 31°34' E 121°28'0 0.0
2016-Jan-12 16:33N 31°34' E 121°28'0 0.2
2016-Jan-12 15:33N 31°34' E 121°29'0 0.0
2016-Jan-12 14:33N 31°34' E 121°29'0 0.1
2016-Jan-12 13:33N 31°34' E 121°29'0 0.0
2016-Jan-12 12:33N 31°34' E 121°29'0 0.0
2016-Jan-12 11:33N 31°34' E 121°29'0 0.0
2016-Jan-12 10:30N 31°34' E 121°29'0 0.1
2016-Jan-12 09:33N 31°34' E 121°29'0 0.3
2016-Jan-12 08:33N 31°35' E 121°28'1 0.7
2016-Jan-12 07:32N 31°35' E 121°28'0 0.0
2016-Jan-12 06:32N 31°35' E 121°28'0 0.0
2016-Jan-12 05:29N 31°35' E 121°28'0 0.0
2016-Jan-12 04:32N 31°35' E 121°28'0 0.0
2016-Jan-12 03:32N 31°35' E 121°28'0 0.0
2016-Jan-12 02:32N 31°35' E 121°28'0 0.0
2016-Jan-12 01:32N 31°35' E 121°28'0 0.0
2016-Jan-12 00:29N 31°35' E 121°28'0 0.0
2016-Jan-11 23:32N 31°35' E 121°28'0 0.0
2016-Jan-11 22:32N 31°35' E 121°28'0 0.0
2016-Jan-11 21:32N 31°35' E 121°28'0 0.0
2016-Jan-11 20:29N 31°35' E 121°28'0 0.0
2016-Jan-11 19:32N 31°35' E 121°28'0 0.0
2016-Jan-11 18:32N 31°35' E 121°28'0 0.0
2016-Jan-11 17:32N 31°35' E 121°28'0 0.0
2016-Jan-11 16:32N 31°35' E 121°28'0 0.0
2016-Jan-11 15:32N 31°35' E 121°28'  
Track history (hours):
 
Tides and Currents Weather Stations Pressure Air Temp Water Temp Dewpoint Dewpoint Depression Visibility Wind Speed Wind Dir Waves Ship Positions

Ben

Last reported at 2016-Jan-21 15:08 UTC. Time now 2016-Feb-06 23:18 UTC.
Position N 01°15' E 104°04'.
Warning: this ship's position is 16 days out of date.

Length 127 m; draft 5.8 m.

Type: Ship. MMSI: 565611000.

Date/timePositionNaut miles runAvg speedWind from/ knotsBaromVisibWave heightAir tempDewpointWater temp
2016-Jan-21 15:08N 01°15' E 104°04'711.7
2016-Jan-21 14:33N 01°14' E 103°57'1111.0
2016-Jan-21 13:30N 01°09' E 103°47'9 0.3
2016-Jan-20 10:16N 01°14' E 103°39'3 3.9
2016-Jan-20 09:33N 01°11' E 103°40'8 8.3
2016-Jan-20 08:33N 01°11' E 103°48'1212.1
2016-Jan-20 07:33N 01°15' E 103°60'  
2016-Jan-13 16:32N 30°30' E 122°60'6611.0
2016-Jan-13 10:32N 31°07' E 121°56'1515.0
2016-Jan-13 09:33N 31°17' E 121°44'1212.2
2016-Jan-13 08:33N 31°24' E 121°32'9 8.7
2016-Jan-13 07:33N 31°30' E 121°25'10 9.8
2016-Jan-13 06:33N 31°30' E 121°36'7 7.3
2016-Jan-13 05:33N 31°34' E 121°30'1 1.1
2016-Jan-13 04:33N 31°35' E 121°28'0 0.2
2016-Jan-13 03:30N 31°34' E 121°29'0 0.0
2016-Jan-13 02:33N 31°34' E 121°29'0 0.0
2016-Jan-13 01:33N 31°34' E 121°29'0 0.1
2016-Jan-13 00:33N 31°34' E 121°29'0 0.0
2016-Jan-12 23:33N 31°34' E 121°29'0 0.1
2016-Jan-12 22:33N 31°34' E 121°29'0 0.0
2016-Jan-12 21:33N 31°34' E 121°29'0 0.0
2016-Jan-12 20:33N 31°34' E 121°29'0 0.2
2016-Jan-12 19:30N 31°34' E 121°28'0 0.0
2016-Jan-12 18:27N 31°34' E 121°28'0 0.0
2016-Jan-12 17:33N 31°34' E 121°28'0 0.0
2016-Jan-12 16:33N 31°34' E 121°28'0 0.2
2016-Jan-12 15:33N 31°34' E 121°29'0 0.0
2016-Jan-12 14:33N 31°34' E 121°29'0 0.1
2016-Jan-12 13:33N 31°34' E 121°29'0 0.0
2016-Jan-12 12:33N 31°34' E 121°29'0 0.0
2016-Jan-12 11:33N 31°34' E 121°29'0 0.0
2016-Jan-12 10:30N 31°34' E 121°29'0 0.1
2016-Jan-12 09:33N 31°34' E 121°29'0 0.3
2016-Jan-12 08:33N 31°35' E 121°28'1 0.7
2016-Jan-12 07:32N 31°35' E 121°28'0 0.0
2016-Jan-12 06:32N 31°35' E 121°28'0 0.0
2016-Jan-12 05:29N 31°35' E 121°28'0 0.0
2016-Jan-12 04:32N 31°35' E 121°28'0 0.0
2016-Jan-12 03:32N 31°35' E 121°28'0 0.0
2016-Jan-12 02:32N 31°35' E 121°28'0 0.0
2016-Jan-12 01:32N 31°35' E 121°28'0 0.0
2016-Jan-12 00:29N 31°35' E 121°28'0 0.0
2016-Jan-11 23:32N 31°35' E 121°28'0 0.0
2016-Jan-11 22:32N 31°35' E 121°28'0 0.0
2016-Jan-11 21:32N 31°35' E 121°28'0 0.0
2016-Jan-11 20:29N 31°35' E 121°28'0 0.0
2016-Jan-11 19:32N 31°35' E 121°28'0 0.0
2016-Jan-11 18:32N 31°35' E 121°28'0 0.0
2016-Jan-11 17:32N 31°35' E 121°28'0 0.0
2016-Jan-11 16:32N 31°35' E 121°28'0 0.0
2016-Jan-11 15:32N 31°35' E 121°28'  

Dump ship's entire track history